Time;durP1;ratioP1;P1;durP2;ratioP2;P2;SDS_P1;SDS_P2;PMS_P1;PMS_P2;Temp;Humidity;BMP_temperature;BMP_pressure;BME280_temperature;BME280_humidity;BME280_pressure;Samples;Min_cycle;Max_cycle;Signal;HPM_P1;HPM_P2
2022/01/06 00:01:13;;;;;;;10.60;2.53;;;;;;;3.90;100.00;101187.19;4684807;30;20064;-84
2022/01/06 00:03:48;;;;;;;15.15;3.85;;;;;;;3.93;100.00;101192.50;4680923;30;20519;-86
2022/01/06 00:06:17;;;;;;;10.48;2.25;;;;;;;3.95;100.00;101188.25;4687191;30;20064;-86
2022/01/06 00:08:45;;;;;;;23.25;3.85;;;;;;;3.95;100.00;101190.84;4684459;30;20050;-85
2022/01/06 00:11:15;;;;;;;18.33;2.47;;;;;;;3.93;100.00;101187.28;4697723;30;20460;-85
2022/01/06 00:24:22;;;;;;;8.13;2.10;;;;;;;3.85;100.00;101214.81;4702695;30;20061;-85
2022/01/06 00:26:51;;;;;;;9.50;2.45;;;;;;;3.85;100.00;101223.50;4664678;30;20064;-86
2022/01/06 00:29:20;;;;;;;12.80;2.05;;;;;;;3.84;100.00;101218.25;4706728;30;20075;-86
2022/01/06 00:31:49;;;;;;;16.92;2.30;;;;;;;3.81;100.00;101218.13;4719233;30;20049;-86
2022/01/06 00:34:18;;;;;;;8.20;2.10;;;;;;;3.78;100.00;101218.94;4704474;30;20055;-86
2022/01/06 00:36:46;;;;;;;18.25;2.90;;;;;;;3.76;100.00;101225.78;4755582;30;20177;-85
2022/01/06 00:39:15;;;;;;;16.90;2.50;;;;;;;3.74;100.00;101232.66;4693795;30;20056;-84
2022/01/06 00:41:44;;;;;;;15.63;2.00;;;;;;;3.72;100.00;101239.53;4707877;30;20055;-87
2022/01/06 00:44:14;;;;;;;9.77;1.98;;;;;;;3.70;100.00;101244.72;4736894;30;20407;-85
2022/01/06 00:46:46;;;;;;;17.83;2.50;;;;;;;3.68;100.00;101259.38;4706010;30;20044;-85
2022/01/06 00:49:17;;;;;;;10.65;2.22;;;;;;;3.67;100.00;101254.13;4692831;30;20048;-85
2022/01/06 00:51:47;;;;;;;15.30;3.22;;;;;;;3.64;100.00;101261.81;4721202;30;20056;-85
2022/01/06 00:54:16;;;;;;;12.77;2.90;;;;;;;3.61;100.00;101261.69;4708212;30;20070;-85
2022/01/06 00:56:44;;;;;;;14.55;3.00;;;;;;;3.59;100.00;101265.97;4756472;30;20063;-87
2022/01/06 00:59:13;;;;;;;12.70;1.80;;;;;;;3.57;100.00;101271.09;4730610;30;20407;-86
2022/01/06 01:01:42;;;;;;;17.63;2.67;;;;;;;3.57;100.00;101265.03;4692350;30;20082;-85
2022/01/06 01:04:10;;;;;;;12.98;2.20;;;;;;;3.57;100.00;101270.22;4701579;30;20056;-86
2022/01/06 01:06:42;;;;;;;15.45;2.67;;;;;;;3.57;100.00;101280.66;4744535;30;20044;-86
2022/01/06 01:09:10;;;;;;;10.18;1.83;;;;;;;3.55;100.00;101277.97;4715128;30;20047;-86
2022/01/06 01:11:39;;;;;;;13.80;2.15;;;;;;;3.53;100.00;101281.38;4722553;30;20257;-85
2022/01/06 01:14:28;;;;;;;15.20;2.22;;;;;;;3.51;100.00;101276.09;4688124;30;20423;-86
2022/01/06 01:17:00;;;;;;;16.45;2.28;;;;;;;3.48;100.00;101286.41;4733115;30;20067;-84
2022/01/06 01:19:30;;;;;;;14.25;2.38;;;;;;;3.43;100.00;101288.81;4701991;30;20040;-85
2022/01/06 01:21:59;;;;;;;12.50;2.90;;;;;;;3.41;100.00;101293.09;4748505;30;20056;-87
2022/01/06 01:24:27;;;;;;;10.75;2.35;;;;;;;3.37;100.00;101291.19;4693248;30;20652;-84
2022/01/06 01:26:56;;;;;;;11.32;2.40;;;;;;;3.34;100.00;101295.41;4706021;30;20060;-85
2022/01/06 01:29:26;;;;;;;9.50;2.00;;;;;;;3.31;100.00;101298.78;4733287;30;20171;-86
2022/01/06 01:31:57;;;;;;;;;;;;;;;3.30;100.00;101310.88;4732577;30;20044;-84
2022/01/06 01:34:27;;;;;;;14.07;2.23;;;;;;;3.28;100.00;101306.47;4717420;30;19932;-86
2022/01/06 01:36:56;;;;;;;16.38;2.50;;;;;;;3.28;100.00;101319.47;4716178;30;20298;-85
2022/01/06 01:39:25;;;;;;;12.68;2.53;;;;;;;3.27;100.00;101325.50;4723457;30;20515;-84
2022/01/06 01:41:54;;;;;;;18.08;2.55;;;;;;;3.23;100.00;101319.31;4727840;30;20048;-85
2022/01/06 01:44:23;;;;;;;16.65;2.53;;;;;;;3.16;100.00;101321.56;4684619;30;20646;-86
2022/01/06 01:47:01;;;;;;;19.35;2.17;;;;;;;3.10;100.00;101330.94;4692345;30;20045;-84
2022/01/06 01:49:46;;;;;;;13.30;2.00;;;;;;;3.03;100.00;101334.09;4693359;30;20142;-85
2022/01/06 01:52:15;;;;;;;10.73;1.90;;;;;;;2.96;100.00;101334.66;4703950;30;20495;-85
2022/01/06 01:54:46;;;;;;;6.22;1.88;;;;;;;2.89;100.00;101348.25;4723849;30;20064;-85
2022/01/06 01:57:15;;;;;;;11.77;2.20;;;;;;;2.84;100.00;101344.56;4708961;30;20052;-86
2022/01/06 01:59:45;;;;;;;13.98;2.28;;;;;;;2.76;100.00;101351.16;4742247;30;20055;-85
2022/01/06 02:02:13;;;;;;;7.85;1.75;;;;;;;2.70;100.00;101349.16;4710499;30;20538;-83
2022/01/06 02:04:42;;;;;;;14.25;2.05;;;;;;;2.63;100.00;101348.03;4721429;30;20048;-82
2022/01/06 02:07:10;;;;;;;7.03;1.73;;;;;;;2.58;100.00;101348.66;4720789;30;20040;-83
2022/01/06 02:09:39;;;;;;;14.95;2.40;;;;;;;2.54;100.00;101352.84;4695976;30;20064;-84
2022/01/06 02:12:10;;;;;;;11.02;1.85;;;;;;;2.50;100.00;101357.00;4736575;30;20043;-82
2022/01/06 02:14:39;;;;;;;7.53;2.38;;;;;;;2.49;100.00;101375.16;4741975;30;20153;-83
2022/01/06 02:17:07;;;;;;;9.82;2.30;;;;;;;2.48;100.00;101389.00;4741385;30;20046;-83
2022/01/06 02:19:36;;;;;;;14.07;2.70;;;;;;;2.49;100.00;101389.03;4748995;30;20438;-83
2022/01/06 02:22:05;;;;;;;10.65;2.28;;;;;;;2.49;100.00;101390.75;4758062;30;20044;-83
2022/01/06 02:24:33;;;;;;;21.15;3.53;;;;;;;2.54;100.00;101404.88;4727453;30;20051;-83
2022/01/06 02:27:02;;;;;;;10.48;2.67;;;;;;;2.57;100.00;101410.22;4702250;30;20048;-83
2022/01/06 02:29:30;;;;;;;9.63;2.17;;;;;;;2.59;100.00;101403.38;4711001;30;20419;-83
2022/01/06 02:31:59;;;;;;;15.18;2.50;;;;;;;2.60;100.00;101405.13;4708857;30;20052;-82
2022/01/06 02:34:28;;;;;;;8.73;2.08;;;;;;;2.62;100.00;101413.91;4734386;30;20057;-82
2022/01/06 02:36:57;;;;;;;12.75;2.03;;;;;;;2.64;100.00;101417.44;4713405;30;20059;-82
2022/01/06 02:39:25;;;;;;;12.82;1.95;;;;;;;2.68;100.00;101418.47;4728532;30;20048;-83
2022/01/06 02:41:54;;;;;;;6.75;1.70;;;;;;;2.70;100.00;101416.84;4689699;30;20562;-84
2022/01/06 02:44:26;;;;;;;8.48;1.88;;;;;;;2.72;100.00;101417.78;4715431;30;20071;-82
2022/01/06 02:46:55;;;;;;;8.93;1.55;;;;;;;2.69;100.00;101436.78;4712912;30;20902;-83
2022/01/06 02:49:23;;;;;;;9.10;1.98;;;;;;;2.67;100.00;101433.22;4729077;30;20044;-82
2022/01/06 02:51:52;;;;;;;8.18;2.42;;;;;;;2.62;100.00;101437.31;4687913;30;20067;-82
2022/01/06 02:54:21;;;;;;;5.78;1.67;;;;;;;2.59;100.00;101436.28;4719346;30;20063;-82
2022/01/06 02:56:50;;;;;;;8.55;2.22;;;;;;;2.56;100.00;101444.84;4731224;30;20056;-82
2022/01/06 02:59:19;;;;;;;13.07;1.95;;;;;;;2.51;100.00;101448.94;4732504;30;20059;-84
2022/01/06 03:01:48;;;;;;;10.83;2.13;;;;;;;2.44;100.00;101447.78;4734549;30;20067;-85
2022/01/06 03:04:23;;;;;;;6.35;1.75;;;;;;;2.39;100.00;101456.22;4699522;30;20060;-85
2022/01/06 03:06:52;;;;;;;8.88;2.15;;;;;;;2.30;100.00;101447.13;4691614;30;20072;-82
2022/01/06 03:09:26;;;;;;;12.25;2.17;;;;;;;2.25;100.00;101445.13;4736104;30;20068;-83
2022/01/06 03:11:54;;;;;;;5.68;2.10;;;;;;;2.17;100.00;101454.31;4694694;30;20345;-82
2022/01/06 03:14:23;;;;;;;9.82;2.10;;;;;;;2.11;100.00;101447.09;4686205;30;20064;-82
2022/01/06 03:16:52;;;;;;;7.97;2.67;;;;;;;2.07;100.00;101453.88;4691093;30;20157;-82
2022/01/06 03:19:23;;;;;;;13.57;2.45;;;;;;;2.02;100.00;101454.47;4714792;30;20048;-83
2022/01/06 03:21:52;;;;;;;9.05;1.73;;;;;;;1.96;100.00;101457.66;4705427;30;20256;-83
2022/01/06 03:24:20;;;;;;;11.82;2.80;;;;;;;1.91;100.00;101459.16;4737797;30;20060;-82
2022/01/06 03:26:49;;;;;;;10.15;2.47;;;;;;;1.87;100.00;101458.13;4716099;30;20671;-84
2022/01/06 03:29:17;;;;;;;7.28;2.60;;;;;;;1.85;100.00;101461.47;4720662;30;20056;-82
2022/01/06 03:31:47;;;;;;;8.30;2.47;;;;;;;1.83;100.00;101461.38;4737470;30;20060;-82
2022/01/06 03:34:16;;;;;;;9.77;2.75;;;;;;;1.82;100.00;101461.34;4722276;30;20065;-83
2022/01/06 03:36:52;;;;;;;11.55;2.65;;;;;;;1.81;100.00;101476.00;4731345;30;20264;-83
2022/01/06 03:39:21;;;;;;;10.40;2.80;;;;;;;1.81;100.00;101481.19;4738569;30;20541;-82
2022/01/06 03:41:50;;;;;;;11.93;2.65;;;;;;;1.80;100.00;101481.16;4688362;30;20330;-83
2022/01/06 03:44:18;;;;;;;12.30;3.22;;;;;;;1.78;100.00;101486.28;4705272;30;20044;-83
2022/01/06 03:46:47;;;;;;;8.00;2.80;;;;;;;1.77;100.00;101479.28;4718865;30;20068;-83
2022/01/06 03:49:16;;;;;;;7.72;3.15;;;;;;;1.76;100.00;101480.13;4717908;30;20048;-84
2022/01/06 03:51:45;;;;;;;12.57;3.38;;;;;;;1.74;100.00;101485.22;4718573;30;20059;-84
2022/01/06 03:54:14;;;;;;;11.73;3.63;;;;;;;1.73;100.00;101487.75;4705647;30;20415;-84
2022/01/06 03:56:43;;;;;;;15.98;3.65;;;;;;;1.71;100.00;101494.56;4724716;30;20056;-84
2022/01/06 03:59:11;;;;;;;11.85;2.95;;;;;;;1.70;100.00;101491.09;4717852;30;20062;-82
2022/01/06 04:01:40;;;;;;;8.95;2.83;;;;;;;1.65;100.00;101486.50;4737595;30;20050;-83
2022/01/06 04:04:09;;;;;;;12.00;2.92;;;;;;;1.61;100.00;101493.22;4731902;30;20068;-81
2022/01/06 04:06:38;;;;;;;12.48;3.40;;;;;;;1.55;100.00;101496.41;4720959;30;20040;-84
2022/01/06 04:09:07;;;;;;;13.73;3.08;;;;;;;1.47;100.00;101497.72;4724936;30;20060;-83
2022/01/06 04:11:35;;;;;;;12.30;3.17;;;;;;;1.46;100.00;101500.25;4754341;30;20063;-83
2022/01/06 04:14:04;;;;;;;18.67;3.40;;;;;;;1.43;100.00;101500.09;4728046;30;20339;-83
2022/01/06 04:16:39;;;;;;;13.80;3.25;;;;;;;1.40;100.00;101500.84;4747439;30;20050;-83
2022/01/06 04:19:09;;;;;;;9.68;3.78;;;;;;;1.37;100.00;101503.28;4743048;30;20063;-83
2022/01/06 04:21:37;;;;;;;11.43;2.88;;;;;;;1.35;100.00;101513.56;4723847;30;20488;-81
2022/01/06 04:24:06;;;;;;;12.48;2.80;;;;;;;1.33;100.00;101506.53;4732339;30;20352;-83
2022/01/06 04:26:34;;;;;;;7.50;2.95;;;;;;;1.32;100.00;101520.31;4725839;30;20055;-84
2022/01/06 04:29:03;;;;;;;12.15;2.80;;;;;;;1.29;100.00;101520.19;4706003;30;20094;-84
2022/01/06 04:31:35;;;;;;;11.95;2.55;;;;;;;1.26;100.00;101531.28;4734713;30;20059;-82
2022/01/06 04:34:04;;;;;;;12.25;3.47;;;;;;;1.20;100.00;101519.69;4728963;30;20074;-82
2022/01/06 04:36:32;;;;;;;11.90;2.75;;;;;;;1.15;100.00;101522.94;4733239;30;20044;-83
2022/01/06 04:39:02;;;;;;;7.88;2.42;;;;;;;1.12;100.00;101525.38;4748040;30;20693;-82
2022/01/06 04:41:30;;;;;;;18.45;2.80;;;;;;;1.11;100.00;101531.38;4758273;30;20054;-82
2022/01/06 04:43:59;;;;;;;11.32;2.97;;;;;;;1.09;100.00;101532.09;4728377;30;20228;-83
2022/01/06 04:46:27;;;;;;;8.65;2.67;;;;;;;1.07;100.00;101542.41;4745392;30;20047;-81
2022/01/06 04:48:56;;;;;;;13.60;2.92;;;;;;;1.04;100.00;101544.84;4740380;30;20066;-82
2022/01/06 04:51:25;;;;;;;8.75;2.17;;;;;;;1.03;100.00;101547.38;4762675;30;20054;-82
2022/01/06 04:53:54;;;;;;;10.80;2.10;;;;;;;1.00;100.00;101537.69;4717545;30;20257;-82
2022/01/06 04:56:22;;;;;;;8.38;2.10;;;;;;;0.98;100.00;101554.88;4727155;30;20056;-83
2022/01/06 04:58:51;;;;;;;11.73;2.97;;;;;;;0.97;100.00;101543.63;4729177;30;20063;-82
2022/01/06 05:01:20;;;;;;;10.57;2.50;;;;;;;0.95;100.00;101541.78;4731379;30;20059;-82
2022/01/06 05:03:48;;;;;;;14.93;3.05;;;;;;;0.93;100.00;101552.06;4761431;30;20090;-82
2022/01/06 05:06:17;;;;;;;9.05;2.58;;;;;;;0.89;100.00;101550.13;4753298;30;20044;-83
2022/01/06 05:08:48;;;;;;;;;;;;;;;0.87;100.00;101559.53;4725021;30;20266;-83
2022/01/06 05:11:16;;;;;;;12.63;2.22;;;;;;;0.84;100.00;101559.34;4767714;30;19925;-83
2022/01/06 05:13:45;;;;;;;9.23;2.15;;;;;;;0.81;100.00;101563.47;4751581;30;20486;-82
2022/01/06 05:16:14;;;;;;;13.50;2.47;;;;;;;0.78;100.00;101561.63;4725481;30;20074;-83
2022/01/06 05:18:43;;;;;;;10.27;2.78;;;;;;;0.74;100.00;101563.16;4735231;30;20048;-82
2022/01/06 05:21:12;;;;;;;12.65;2.45;;;;;;;0.73;100.00;101561.34;4719560;30;20051;-81
2022/01/06 05:23:41;;;;;;;13.68;3.22;;;;;;;0.72;100.00;101561.28;4736847;30;20054;-84
2022/01/06 05:26:10;;;;;;;9.93;2.42;;;;;;;0.71;100.00;101568.16;4768626;30;20060;-82
2022/01/06 05:28:39;;;;;;;5.82;2.10;;;;;;;0.70;100.00;101569.00;4751731;30;20051;-84
2022/01/06 05:31:07;;;;;;;9.98;2.40;;;;;;;0.71;100.00;101580.25;4746070;30;20067;-82
2022/01/06 05:33:36;;;;;;;10.35;2.25;;;;;;;0.67;100.00;101592.16;4735715;30;20055;-83
2022/01/06 05:36:05;;;;;;;9.48;2.60;;;;;;;0.66;100.00;101598.16;4744906;30;20062;-82
2022/01/06 05:38:34;;;;;;;12.05;2.25;;;;;;;0.64;100.00;101594.56;4749169;30;20043;-83
2022/01/06 05:41:02;;;;;;;18.35;2.75;;;;;;;0.61;100.00;101598.72;4737193;30;20082;-82
2022/01/06 05:43:31;;;;;;;17.92;3.22;;;;;;;0.60;100.00;101602.13;4732842;30;20064;-84
2022/01/06 05:46:02;;;;;;;;;;;;;;;0.58;100.00;101615.00;4723482;30;20631;-81
2022/01/06 05:48:31;;;;;;;15.50;2.88;;;;;;;0.56;100.00;101604.53;4720733;30;20301;-83
2022/01/06 05:50:59;;;;;;;11.65;2.38;;;;;;;0.56;100.00;101603.63;4737331;30;20048;-83
2022/01/06 05:53:29;;;;;;;15.70;3.58;;;;;;;0.53;100.00;101609.56;4748799;30;20048;-83
2022/01/06 05:55:58;;;;;;;14.55;2.67;;;;;;;0.52;100.00;101618.13;4754092;30;20060;-83
2022/01/06 05:58:27;;;;;;;14.30;3.28;;;;;;;0.51;100.00;101615.44;4759275;30;20070;-82
2022/01/06 06:00:55;;;;;;;17.83;2.25;;;;;;;0.50;100.00;101619.75;4728119;30;20071;-82
2022/01/06 06:03:27;;;;;;;12.77;2.65;;;;;;;0.50;100.00;101622.34;4733822;30;20078;-83
2022/01/06 06:05:56;;;;;;;19.55;2.92;;;;;;;0.50;100.00;101629.25;4745937;30;20048;-83
2022/01/06 06:08:24;;;;;;;10.57;3.00;;;;;;;0.48;100.00;101620.47;4741450;30;20067;-83
2022/01/06 06:10:53;;;;;;;10.13;3.20;;;;;;;0.46;100.00;101627.28;4729091;30;20157;-83
2022/01/06 06:13:22;;;;;;;16.80;3.15;;;;;;;0.43;100.00;101627.09;4712072;30;20060;-83
2022/01/06 06:15:50;;;;;;;25.42;3.85;;;;;;;0.40;100.00;101625.25;4717965;30;20150;-84
2022/01/06 06:18:19;;;;;;;16.27;3.22;;;;;;;0.39;100.00;101626.91;4773788;30;20049;-84
2022/01/06 06:20:47;;;;;;;18.73;2.95;;;;;;;0.38;100.00;101632.91;4759222;29;20048;-83
2022/01/06 06:23:17;;;;;;;13.57;2.80;;;;;;;0.36;100.00;101626.75;4762205;30;20035;-82
2022/01/06 06:25:48;;;;;;;18.88;3.33;;;;;;;0.35;100.00;101627.56;4713678;30;20082;-82
2022/01/06 06:28:17;;;;;;;14.38;3.85;;;;;;;0.35;100.00;101632.72;4736166;30;20070;-82
2022/01/06 06:30:46;;;;;;;17.55;4.40;;;;;;;0.33;100.00;101634.34;4743832;30;20050;-82
2022/01/06 06:33:15;;;;;;;17.27;3.35;;;;;;;0.33;100.00;101639.53;4756641;30;20054;-83
2022/01/06 06:35:44;;;;;;;17.67;3.50;;;;;;;0.34;100.00;101641.34;4713346;30;20048;-83
2022/01/06 06:38:12;;;;;;;16.40;3.08;;;;;;;0.32;100.00;101647.22;4717243;30;20047;-82
2022/01/06 06:40:41;;;;;;;15.35;2.55;;;;;;;0.30;100.00;101649.75;4720432;30;20067;-83
2022/01/06 06:43:13;;;;;;;20.67;3.13;;;;;;;0.29;100.00;101653.13;4732703;30;20052;-84
2022/01/06 06:45:42;;;;;;;18.52;3.28;;;;;;;0.26;100.00;101658.13;4708635;30;20063;-83
2022/01/06 06:48:12;;;;;;;13.45;3.15;;;;;;;0.26;100.00;101665.03;4737959;30;20406;-83
2022/01/06 06:50:40;;;;;;;12.55;2.60;;;;;;;0.24;100.00;101658.84;4725615;30;20051;-83
2022/01/06 06:53:09;;;;;;;10.05;2.92;;;;;;;0.22;100.00;101666.53;4734898;30;20064;-83
2022/01/06 06:55:38;;;;;;;14.68;2.63;;;;;;;0.19;100.00;101668.97;4746018;30;20066;-84
2022/01/06 06:58:07;;;;;;;20.80;3.25;;;;;;;0.16;100.00;101673.97;4724985;30;20063;-83
2022/01/06 07:00:35;;;;;;;12.07;3.53;;;;;;;0.13;100.00;101671.19;4729143;30;20064;-83
2022/01/06 07:03:04;;;;;;;21.58;3.30;;;;;;;0.11;100.00;101676.28;4750100;30;20514;-83
2022/01/06 07:05:33;;;;;;;15.82;3.22;;;;;;;0.11;100.00;101680.56;4701056;30;20052;-81
2022/01/06 07:08:02;;;;;;;10.15;2.92;;;;;;;0.08;100.00;101685.59;4710722;30;20267;-81
2022/01/06 07:10:30;;;;;;;19.13;3.10;;;;;;;0.05;100.00;101696.66;4730560;30;20533;-83
2022/01/06 07:12:59;;;;;;;17.20;2.60;;;;;;;0.03;100.00;101694.78;4731068;30;20060;-81
2022/01/06 07:15:27;;;;;;;12.32;2.63;;;;;;;0.02;100.00;101695.56;4736312;30;20040;-81
2022/01/06 07:17:56;;;;;;;19.48;3.35;;;;;;;0.01;100.00;101693.81;4730495;30;20185;-84
2022/01/06 07:20:25;;;;;;;19.05;4.50;;;;;;;-0.02;100.00;101705.78;4713962;30;20067;-82
2022/01/06 07:22:53;;;;;;;17.30;3.35;;;;;;;-0.05;100.00;101700.41;4713187;30;20055;-82
2022/01/06 07:25:22;;;;;;;19.63;3.80;;;;;;;-0.04;100.00;101711.66;4722234;30;20055;-82
2022/01/06 07:27:51;;;;;;;16.45;3.40;;;;;;;-0.07;100.00;101714.06;4716714;30;20430;-83
2022/01/06 07:30:20;;;;;;;19.52;3.00;;;;;;;-0.07;100.00;101725.31;4731972;30;20063;-82
2022/01/06 07:32:51;;;;;;;20.45;3.25;;;;;;;-0.08;100.00;101726.13;4746234;30;20060;-81
2022/01/06 07:35:21;;;;;;;17.23;3.03;;;;;;;-0.10;100.00;101732.91;4707915;30;20052;-81
2022/01/06 07:37:50;;;;;;;20.25;3.65;;;;;;;-0.11;100.00;101738.91;4716882;30;20048;-83
2022/01/06 07:40:20;;;;;;;16.33;3.15;;;;;;;-0.12;100.00;101737.09;4733097;30;20059;-84
2022/01/06 07:42:51;;;;;;;18.60;3.67;;;;;;;-0.14;100.00;101738.69;4750926;30;20711;-81
2022/01/06 07:45:19;;;;;;;11.15;3.47;;;;;;;-0.14;100.00;101741.28;4754881;30;20506;-83
2022/01/06 07:47:56;;;;;;;22.45;4.10;;;;;;;-0.14;100.00;101743.00;4730726;30;20075;-84
2022/01/06 07:50:31;;;;;;;13.75;3.13;;;;;;;-0.15;100.00;101748.97;4745997;30;20051;-82
2022/01/06 07:53:00;;;;;;;15.73;3.45;;;;;;;-0.16;100.00;101749.78;4753753;30;20455;-84
2022/01/06 07:55:29;;;;;;;20.75;3.53;;;;;;;-0.16;100.00;101749.78;4754976;30;20052;-83
2022/01/06 07:57:58;;;;;;;22.55;3.78;;;;;;;-0.18;100.00;101762.63;4717159;30;20059;-81
2022/01/06 08:00:28;;;;;;;18.97;3.30;;;;;;;-0.17;100.00;101759.25;4742799;30;20051;-83
2022/01/06 08:02:57;;;;;;;14.73;2.92;;;;;;;-0.16;100.00;101765.34;4738539;30;20066;-83
2022/01/06 08:05:27;;;;;;;18.00;3.58;;;;;;;-0.17;100.00;101766.13;4766301;30;20498;-82
2022/01/06 08:07:56;;;;;;;20.80;3.53;;;;;;;-0.18;100.00;101761.75;4720774;30;20098;-82
2022/01/06 08:10:25;;;;;;;14.18;3.47;;;;;;;-0.18;100.00;101767.81;4712506;30;20079;-84
2022/01/06 08:12:54;;;;;;;14.68;3.40;;;;;;;-0.17;100.00;101772.22;4734066;30;20054;-83
2022/01/06 08:15:22;;;;;;;25.70;3.97;;;;;;;-0.14;100.00;101774.97;4737113;30;20526;-83
2022/01/06 08:17:51;;;;;;;22.63;5.35;;;;;;;-0.09;100.00;101765.81;4709996;30;21242;-82
2022/01/06 08:20:20;;;;;;;24.73;6.07;;;;;;;-0.05;100.00;101782.44;4711142;30;20510;-83
2022/01/06 08:22:48;;;;;;;18.45;4.10;;;;;;;-0.03;100.00;101778.22;4756450;30;20047;-82
2022/01/06 08:25:17;;;;;;;25.55;4.65;;;;;;;-0.02;100.00;101777.41;4754114;30;20070;-84
2022/01/06 08:27:46;;;;;;;26.67;3.88;;;;;;;-0.01;100.00;101787.88;4744849;30;20058;-83
2022/01/06 08:30:14;;;;;;;18.75;3.50;;;;;;;0.01;100.00;101782.78;4763919;30;20051;-82
2022/01/06 08:32:43;;;;;;;15.07;3.53;;;;;;;0.04;100.00;101785.59;4741979;30;20448;-81
2022/01/06 08:35:12;;;;;;;17.42;3.20;;;;;;;0.08;100.00;101787.56;4720607;30;20027;-81
2022/01/06 08:37:41;;;;;;;28.08;4.40;;;;;;;0.10;100.00;101780.75;4749043;30;20071;-83
2022/01/06 08:40:10;;;;;;;26.42;4.03;;;;;;;0.14;100.00;101782.72;4741502;30;20039;-82
2022/01/06 08:42:39;;;;;;;13.35;3.85;;;;;;;0.17;100.00;101792.38;4726266;30;20071;-82
2022/01/06 08:45:09;;;;;;;20.42;4.07;;;;;;;0.21;100.00;101796.97;4737570;30;20059;-82
2022/01/06 08:47:38;;;;;;;18.42;3.47;;;;;;;0.26;100.00;101797.25;4748040;30;20059;-82
2022/01/06 08:50:08;;;;;;;20.13;4.32;;;;;;;0.31;100.00;101795.81;4759878;30;20067;-82
2022/01/06 08:52:38;;;;;;;23.88;4.82;;;;;;;0.32;100.00;101792.41;4763544;30;20055;-82
2022/01/06 08:55:08;;;;;;;27.52;5.18;;;;;;;0.33;100.00;101795.09;4741004;30;20051;-83
2022/01/06 08:57:38;;;;;;;26.48;4.82;;;;;;;0.35;100.00;101795.19;4736804;30;20098;-81
2022/01/06 09:00:10;;;;;;;22.08;5.35;;;;;;;0.36;100.00;101797.88;4734358;30;20054;-82
2022/01/06 09:02:38;;;;;;;21.92;4.47;;;;;;;0.41;100.00;101792.06;4731702;30;20052;-80
2022/01/06 09:05:10;;;;;;;23.10;5.03;;;;;;;0.44;100.00;101789.69;4751951;30;20059;-81
2022/01/06 09:07:38;;;;;;;18.70;4.50;;;;;;;0.47;100.00;101779.47;4725837;30;20542;-82
2022/01/06 09:10:07;;;;;;;21.73;4.72;;;;;;;0.52;100.00;101784.13;4739297;30;20530;-81
2022/01/06 09:12:37;;;;;;;19.45;5.05;;;;;;;0.58;100.00;101776.69;4713979;30;20331;-82
2022/01/06 09:15:08;;;;;;;21.67;3.80;;;;;;;0.66;100.00;101784.03;4716568;30;20059;-81
2022/01/06 09:17:36;;;;;;;;;;;;;;;0.70;100.00;101776.53;4713534;30;20587;-82
2022/01/06 09:20:07;;;;;;;18.95;6.35;;;;;;;0.74;100.00;101781.09;4735318;30;19933;-82
2022/01/06 09:22:41;;;;;;;23.65;4.03;;;;;;;0.80;100.00;101788.34;4749703;30;20059;-82
2022/01/06 09:25:12;;;;;;;19.40;5.13;;;;;;;0.87;100.00;101789.56;4755178;30;20067;-82
2022/01/06 09:27:42;;;;;;;20.88;3.95;;;;;;;0.93;100.00;101782.16;4719822;30;20439;-82
2022/01/06 09:30:11;;;;;;;18.42;3.85;;;;;;;0.98;100.00;101780.69;4716089;30;20056;-81
2022/01/06 09:32:40;;;;;;;18.60;4.47;;;;;;;1.06;100.00;101791.50;4753204;30;20077;-81
2022/01/06 09:35:11;;;;;;;13.95;3.85;;;;;;;1.12;100.00;101791.88;4762273;30;20522;-82
2022/01/06 09:37:40;;;;;;;27.45;4.50;;;;;;;1.19;100.00;101793.09;4738212;30;20621;-81
2022/01/06 09:40:09;;;;;;;31.10;4.07;;;;;;;1.25;100.00;101789.16;4728581;30;20048;-82
2022/01/06 09:42:41;;;;;;;21.38;4.70;;;;;;;1.33;100.00;101794.78;4715199;30;20298;-82
2022/01/06 09:45:11;;;;;;;24.25;3.95;;;;;;;1.39;100.00;101794.22;4751322;30;20046;-81
2022/01/06 09:47:40;;;;;;;33.42;3.95;;;;;;;1.46;100.00;101805.03;4722814;30;20051;-81
2022/01/06 09:50:11;;;;;;;15.73;4.22;;;;;;;1.52;100.00;101805.38;4752698;30;20063;-81
2022/01/06 09:52:41;;;;;;;19.98;3.92;;;;;;;1.59;100.00;101810.91;4751921;30;20654;-82
2022/01/06 09:55:10;;;;;;;17.27;3.95;;;;;;;1.65;100.00;101809.56;4739123;30;20060;-82
2022/01/06 09:57:38;;;;;;;18.60;3.85;;;;;;;1.73;100.00;101809.97;4717947;30;20745;-82
2022/01/06 10:00:08;;;;;;;15.15;3.90;;;;;;;1.81;100.00;101812.97;4730815;30;20059;-81
2022/01/06 10:02:40;;;;;;;16.67;3.42;;;;;;;1.88;100.00;101813.38;4732366;30;20295;-83
2022/01/06 10:05:08;;;;;;;16.63;3.47;;;;;;;1.96;100.00;101808.59;4736199;30;20056;-82
2022/01/06 10:07:39;;;;;;;26.25;3.20;;;;;;;2.03;100.00;101813.31;4757444;30;20051;-83
2022/01/06 10:10:11;;;;;;;17.95;3.67;;;;;;;2.11;100.00;101812.00;4736232;30;20075;-82
2022/01/06 10:12:41;;;;;;;25.00;3.60;;;;;;;2.20;100.00;101819.41;4758971;30;20047;-83
2022/01/06 10:15:21;;;;;;;11.15;3.03;;;;;;;2.29;100.00;101806.00;4732932;30;20055;-82
2022/01/06 10:17:50;;;;;;;11.63;3.05;;;;;;;2.37;100.00;101816.81;4757509;30;20044;-82
2022/01/06 10:20:21;;;;;;;23.75;3.20;;;;;;;2.47;100.00;101806.94;4740995;30;20047;-82
2022/01/06 10:22:55;;;;;;;20.48;3.40;;;;;;;2.57;100.00;101816.13;4749506;30;20153;-82
2022/01/06 10:25:31;;;;;;;12.88;2.75;;;;;;;2.66;100.00;101818.28;4754402;30;20048;-82
2022/01/06 10:28:22;;;;;;;15.63;3.17;;;;;;;2.75;100.00;101818.75;4768580;30;20067;-82
2022/01/06 10:30:51;;;;;;;18.70;3.00;;;;;;;2.83;100.00;101813.94;4738545;30;20386;-81
2022/01/06 10:33:23;;;;;;;16.42;3.58;;;;;;;2.90;100.00;101816.03;4757161;30;20062;-84
2022/01/06 10:35:52;;;;;;;15.13;3.33;;;;;;;2.94;100.00;101804.97;4739323;30;20052;-81
2022/01/06 10:38:27;;;;;;;21.50;3.47;;;;;;;2.96;100.00;101811.13;4701262;30;20062;-81
2022/01/06 10:41:16;;;;;;;17.65;3.45;;;;;;;2.98;100.00;101813.81;4734396;30;20071;-82
2022/01/06 10:43:53;;;;;;;19.15;3.30;;;;;;;3.04;100.00;101808.91;4719475;30;20560;-81
2022/01/06 10:46:31;;;;;;;16.08;3.08;;;;;;;3.06;100.00;101808.19;4755276;30;20051;-82
2022/01/06 10:49:07;;;;;;;18.30;3.15;;;;;;;3.08;100.00;101803.94;4758473;30;20518;-79
2022/01/06 10:51:49;;;;;;;20.20;3.75;;;;;;;3.12;100.00;101798.06;4751888;30;20164;-81
2022/01/06 10:54:24;;;;;;;16.25;4.30;;;;;;;3.18;100.00;101797.47;4752389;30;20047;-83
2022/01/06 10:57:01;;;;;;;24.95;4.85;;;;;;;3.23;100.00;101801.19;4736574;30;20054;-84
2022/01/06 10:59:33;;;;;;;14.73;3.90;;;;;;;3.27;100.00;101791.78;4734245;30;20051;-83
2022/01/06 11:02:04;;;;;;;13.70;4.00;;;;;;;3.32;100.00;101795.50;4750194;30;20060;-82
2022/01/06 11:04:36;;;;;;;22.27;4.05;;;;;;;3.39;100.00;101802.81;4724252;30;20060;-83
2022/01/06 11:07:04;;;;;;;32.40;4.95;;;;;;;3.45;100.00;101797.00;4734207;30;20079;-83
2022/01/06 11:09:35;;;;;;;19.75;5.20;;;;;;;3.53;100.00;101792.13;4714304;30;20063;-83
2022/01/06 11:14:52;;;;;;;16.95;5.55;;;;;;;3.72;100.00;101789.56;4737199;30;21157;-83
2022/01/06 11:17:23;;;;;;;22.48;5.70;;;;;;;3.81;100.00;101791.72;4747277;30;20032;-82
2022/01/06 11:19:52;;;;;;;25.58;6.60;;;;;;;3.92;100.00;101800.91;4752355;30;20984;-80
2022/01/06 11:22:26;;;;;;;18.00;4.25;;;;;;;4.03;100.00;101793.59;4728069;30;20063;-83
2022/01/06 11:24:57;;;;;;;20.75;5.55;;;;;;;4.11;100.00;101789.59;4741773;30;20051;-82
2022/01/06 11:27:34;;;;;;;12.63;3.33;;;;;;;4.18;100.00;101789.03;4764015;30;20062;-81
2022/01/06 11:30:08;;;;;;;28.67;5.82;;;;;;;4.24;100.00;101789.31;4735373;30;20067;-82
2022/01/06 11:32:37;;;;;;;20.67;4.85;;;;;;;4.27;100.00;101786.84;4731696;30;20054;-82
2022/01/06 11:35:12;;;;;;;20.05;4.68;;;;;;;4.32;100.00;101786.16;4721869;30;20066;-82
2022/01/06 11:37:48;;;;;;;20.45;4.63;;;;;;;4.35;100.00;101786.25;4741701;30;20360;-82
2022/01/06 11:40:33;;;;;;;17.85;4.20;;;;;;;4.41;100.00;101794.38;4727370;30;20074;-83
2022/01/06 11:43:02;;;;;;;22.60;4.50;;;;;;;4.43;100.00;101790.13;4738556;30;20059;-84
2022/01/06 11:45:31;;;;;;;28.23;4.07;;;;;;;4.47;100.00;101810.31;4730617;30;20063;-83